createdAt,value
2019-02-24T00:02:27.241Z,33.13
2019-02-24T00:05:02.037Z,35.60
2019-02-24T00:07:37.006Z,36.30
2019-02-24T00:10:11.386Z,37.57
2019-02-24T00:12:45.663Z,35.87
2019-02-24T00:15:19.684Z,34.10
2019-02-24T00:18:00.255Z,36.20
2019-02-24T00:20:34.439Z,35.27
2019-02-24T00:23:10.186Z,37.27
2019-02-24T00:25:44.653Z,37.20
2019-02-24T00:28:18.201Z,35.80
2019-02-24T00:30:52.051Z,36.10
2019-02-24T00:33:26.294Z,37.63
2019-02-24T00:36:00.594Z,37.70
2019-02-24T00:38:37.455Z,38.60
2019-02-24T00:41:11.536Z,39.43
2019-02-24T00:43:46.721Z,38.73
2019-02-24T00:46:20.808Z,37.98
2019-02-24T00:48:54.763Z,34.22
2019-02-24T00:51:28.566Z,38.03
2019-02-24T00:54:02.509Z,34.00
2019-02-24T00:56:36.175Z,33.67
2019-02-24T00:59:10.824Z,34.03
2019-02-24T01:01:45.240Z,31.73
2019-02-24T01:04:19.045Z,33.60
2019-02-24T01:06:54.604Z,34.10
2019-02-24T01:09:28.467Z,30.03
2019-02-24T01:12:02.259Z,31.50
2019-02-24T01:14:55.325Z,31.65
2019-02-24T01:17:28.843Z,33.27
2019-02-24T01:20:02.489Z,31.80
2019-02-24T01:22:37.533Z,32.98
2019-02-24T01:25:11.785Z,31.23
2019-02-24T01:27:46.937Z,32.75
2019-02-24T01:30:20.598Z,33.10
2019-02-24T01:32:56.230Z,31.70
2019-02-24T01:35:29.894Z,33.10
2019-02-24T01:38:03.952Z,31.75
2019-02-24T01:40:38.282Z,31.83
2019-02-24T01:43:12.642Z,29.70
2019-02-24T01:45:46.460Z,28.73
2019-02-24T01:48:21.163Z,27.23
2019-02-24T01:50:55.153Z,23.67
2019-02-24T01:53:29.331Z,25.60
2019-02-24T01:56:03.502Z,25.60
2019-02-24T01:58:37.657Z,25.47
2019-02-24T02:01:13.311Z,23.23
2019-02-24T02:03:47.253Z,24.57
2019-02-24T02:06:20.825Z,26.33
2019-02-24T02:08:55.499Z,27.00
2019-02-24T02:11:31.705Z,24.75
2019-02-24T02:14:07.667Z,24.63
2019-02-24T02:16:43.184Z,25.90
2019-02-24T02:19:17.007Z,25.37
2019-02-24T02:21:51.335Z,24.10
2019-02-24T02:24:25.086Z,23.53
2019-02-24T02:26:59.811Z,22.10
2019-02-24T02:29:33.589Z,21.57
2019-02-24T02:32:07.454Z,21.33
2019-02-24T02:34:42.454Z,20.37
2019-02-24T02:37:16.136Z,21.60
2019-02-24T02:39:50.301Z,21.30
2019-02-24T02:42:24.531Z,21.63
2019-02-24T02:45:18.187Z,20.17
2019-02-24T02:47:52.035Z,19.87
2019-02-24T02:50:27.161Z,17.33
2019-02-24T02:53:01.305Z,14.27
2019-02-24T03:08:38.143Z,15.27
2019-02-24T03:17:15.295Z,17.20
2019-02-24T03:20:27.380Z,19.67
2019-02-24T03:22:57.991Z,20.97
2019-02-24T03:25:52.305Z,20.90
2019-02-24T03:31:09.727Z,17.83
2019-02-24T03:33:44.904Z,16.90
2019-02-24T03:36:17.873Z,15.40
2019-02-24T03:38:51.857Z,15.47
2019-02-24T03:41:25.556Z,14.70
2019-02-24T03:44:00.363Z,14.70
2019-02-24T03:46:38.452Z,14.93
2019-02-24T03:49:14.380Z,14.70
2019-02-24T03:51:48.375Z,12.27
2019-02-24T03:54:22.108Z,10.90
2019-02-24T03:56:57.674Z,9.97
2019-02-24T03:59:31.666Z,10.70
2019-02-24T04:02:05.945Z,11.43
2019-02-24T04:04:40.507Z,11.70
2019-02-24T04:07:17.408Z,11.13
2019-02-24T04:09:54.304Z,10.77
2019-02-24T04:12:31.533Z,12.43
2019-02-24T04:15:08.702Z,10.10
2019-02-24T04:17:43.827Z,10.40
2019-02-24T04:20:20.443Z,10.80
2019-02-24T04:22:57.487Z,10.77
2019-02-24T04:25:32.410Z,10.60
2019-02-24T04:28:10.348Z,9.70
2019-02-24T04:30:45.586Z,8.83
2019-02-24T04:33:20.516Z,9.43
2019-02-24T04:35:55.972Z,9.07
2019-02-24T04:38:30.654Z,8.93
2019-02-24T04:41:06.812Z,9.77
2019-02-24T04:43:45.241Z,11.43
2019-02-24T04:46:21.082Z,11.30
2019-02-24T04:48:55.773Z,10.10
2019-02-24T04:51:30.635Z,10.30
2019-02-24T04:54:04.858Z,11.50
2019-02-24T04:56:39.708Z,10.47
2019-02-24T04:59:14.314Z,10.70
2019-02-24T05:01:48.728Z,11.30
2019-02-24T05:04:23.968Z,10.90
2019-02-24T05:06:58.999Z,10.30
2019-02-24T05:09:33.018Z,10.00
2019-02-24T05:12:10.774Z,11.23
2019-02-24T05:14:50.100Z,10.03
2019-02-24T05:17:26.385Z,10.13
2019-02-24T05:20:07.001Z,9.85
2019-02-24T05:22:42.601Z,10.60
2019-02-24T05:25:19.590Z,10.43
2019-02-24T05:27:54.294Z,10.10
2019-02-24T05:30:29.100Z,10.37
2019-02-24T05:33:06.696Z,9.53
2019-02-24T05:35:41.353Z,9.60
2019-02-24T05:38:17.017Z,10.38
2019-02-24T05:40:53.430Z,10.20
2019-02-24T05:43:28.206Z,10.33
2019-02-24T05:46:05.464Z,11.40
2019-02-24T05:48:40.376Z,11.30
2019-02-24T05:51:14.698Z,10.33
2019-02-24T05:53:50.832Z,9.70
2019-02-24T05:56:29.204Z,10.63
2019-02-24T05:59:05.883Z,10.17
2019-02-24T06:01:40.484Z,10.77
2019-02-24T06:04:14.896Z,10.90
2019-02-24T06:06:51.729Z,11.20
2019-02-24T06:09:26.800Z,10.43
2019-02-24T06:12:05.758Z,10.80
2019-02-24T06:14:42.046Z,10.37
2019-02-24T06:17:21.687Z,10.18
2019-02-24T06:19:58.477Z,10.67
2019-02-24T06:22:53.054Z,12.37
2019-02-24T06:25:28.794Z,10.13
2019-02-24T06:28:04.590Z,8.90
2019-02-24T06:30:41.378Z,9.60
2019-02-24T06:33:17.461Z,10.63
2019-02-24T06:35:54.031Z,11.22
2019-02-24T06:38:29.211Z,12.60
2019-02-24T06:41:05.758Z,12.30
2019-02-24T06:43:42.810Z,10.47
2019-02-24T06:46:24.291Z,10.93
2019-02-24T06:48:59.718Z,10.90
2019-02-24T06:51:36.528Z,10.93
2019-02-24T06:54:12.453Z,11.73
2019-02-24T06:56:48.786Z,11.80
2019-02-24T06:59:26.319Z,11.03
2019-02-24T07:02:03.928Z,10.30
2019-02-24T07:04:41.708Z,9.77
2019-02-24T07:07:28.308Z,10.37
2019-02-24T07:09:56.501Z,10.13
2019-02-24T07:12:31.778Z,10.23
2019-02-24T07:15:10.038Z,10.47
2019-02-24T07:17:54.746Z,9.93
2019-02-24T07:20:30.691Z,10.70
2019-02-24T07:23:17.884Z,10.47
2019-02-24T07:25:58.192Z,9.88
2019-02-24T07:28:35.295Z,10.03
2019-02-24T07:31:16.510Z,9.47
2019-02-24T07:33:51.082Z,8.90
2019-02-24T07:36:27.123Z,7.53
2019-02-24T07:39:01.923Z,8.80
2019-02-24T07:41:38.251Z,8.90
2019-02-24T07:44:12.621Z,9.73
2019-02-24T07:46:47.796Z,8.93
2019-02-24T07:49:22.718Z,8.23
2019-02-24T07:51:57.558Z,8.70
2019-02-24T07:54:31.144Z,7.80
2019-02-24T07:57:05.072Z,8.83
2019-02-24T07:59:39.899Z,7.93
2019-02-24T08:02:17.431Z,8.57
2019-02-24T08:04:51.899Z,8.73
2019-02-24T08:07:27.477Z,9.80
2019-02-24T08:10:02.445Z,8.37
2019-02-24T08:12:37.407Z,8.23
2019-02-24T08:15:13.593Z,9.30
2019-02-24T08:17:51.108Z,9.67
2019-02-24T08:20:26.040Z,8.77
2019-02-24T08:23:04.282Z,8.83
2019-02-24T08:25:45.441Z,8.87
2019-02-24T08:28:23.200Z,10.17
2019-02-24T08:31:00.102Z,8.85
2019-02-24T08:33:35.254Z,8.83
2019-02-24T08:36:09.895Z,9.20
2019-02-24T08:38:44.460Z,9.27
2019-02-24T08:41:18.852Z,8.20
2019-02-24T08:43:52.901Z,8.50
2019-02-24T08:46:27.249Z,8.90
2019-02-24T08:49:01.620Z,8.70
2019-02-24T08:51:37.835Z,8.77
2019-02-24T08:54:12.627Z,9.50
2019-02-24T08:56:47.441Z,9.30
2019-02-24T08:59:21.979Z,9.57
2019-02-24T09:01:56.909Z,9.97
2019-02-24T09:04:32.767Z,10.53
2019-02-24T09:07:12.236Z,10.50
2019-02-24T09:09:46.832Z,11.40
2019-02-24T09:12:23.403Z,12.03
2019-02-24T09:15:00.927Z,11.47
2019-02-24T09:17:35.810Z,12.57
2019-02-24T09:20:12.762Z,12.70
2019-02-24T09:22:47.909Z,10.93
2019-02-24T09:25:23.438Z,11.87
2019-02-24T09:27:57.775Z,11.87
2019-02-24T09:30:34.450Z,12.23
2019-02-24T09:33:09.272Z,11.67
2019-02-24T09:35:45.600Z,12.20
2019-02-24T09:38:20.815Z,12.30
2019-02-24T09:40:56.912Z,13.00
2019-02-24T09:43:31.751Z,13.33
2019-02-24T09:46:09.931Z,13.30
2019-02-24T09:48:50.004Z,13.43
2019-02-24T09:51:24.587Z,13.55
2019-02-24T09:54:00.375Z,13.63
2019-02-24T09:56:40.035Z,15.10
2019-02-24T09:59:14.220Z,14.50
2019-02-24T10:01:49.928Z,14.47
2019-02-24T10:04:24.753Z,13.73
2019-02-24T10:06:59.798Z,14.70
2019-02-24T10:09:35.100Z,14.70
2019-02-24T10:12:10.599Z,15.90
2019-02-24T10:14:51.400Z,16.43
2019-02-24T10:17:35.861Z,15.95
2019-02-24T10:20:13.160Z,16.33
2019-02-24T10:22:50.541Z,17.03
2019-02-24T10:25:26.072Z,18.37
2019-02-24T10:28:14.235Z,18.33
2019-02-24T10:30:52.188Z,18.90
2019-02-24T10:33:29.873Z,18.40
2019-02-24T10:36:06.840Z,18.47
2019-02-24T10:38:47.359Z,18.30
2019-02-24T10:41:24.531Z,17.60
2019-02-24T10:44:00.032Z,18.30
2019-02-24T10:46:35.529Z,19.00
2019-02-24T10:49:11.017Z,22.10
2019-02-24T10:51:47.426Z,21.67
2019-02-24T10:54:22.697Z,24.87
2019-02-24T10:56:58.243Z,26.47
2019-02-24T10:59:33.616Z,27.70
2019-02-24T11:02:09.135Z,27.33
2019-02-24T11:04:44.549Z,26.93
2019-02-24T11:07:26.460Z,30.08
2019-02-24T11:10:22.389Z,31.50
2019-02-24T11:15:53.421Z,33.55
2019-02-24T11:18:30.623Z,35.33
2019-02-24T11:21:07.177Z,38.03
2019-02-24T11:23:44.795Z,38.03
2019-02-24T11:26:21.005Z,37.70
2019-02-24T11:28:59.624Z,38.05
2019-02-24T11:31:38.371Z,40.73
2019-02-24T11:34:14.970Z,40.80
2019-02-24T11:36:56.763Z,43.90
2019-02-24T11:39:32.414Z,42.20
2019-02-24T11:42:10.491Z,42.30
2019-02-24T11:44:48.880Z,45.40
2019-02-24T11:47:24.916Z,45.57
2019-02-24T11:50:02.712Z,46.37
2019-02-24T11:55:52.952Z,46.13
2019-02-24T11:58:32.003Z,46.40
2019-02-24T12:01:13.115Z,43.60
2019-02-24T12:03:50.143Z,45.87
2019-02-24T12:06:29.138Z,46.43
2019-02-24T12:09:08.126Z,45.93
2019-02-24T12:14:38.300Z,45.60
2019-02-24T12:17:15.473Z,45.30
2019-02-24T12:19:52.360Z,41.80
2019-02-24T12:22:31.164Z,43.37
2019-02-24T12:25:12.459Z,44.90
2019-02-24T12:27:49.968Z,43.13
2019-02-24T12:30:30.398Z,41.57
2019-02-24T12:33:10.625Z,41.23
2019-02-24T12:35:51.279Z,43.80
2019-02-24T12:38:28.524Z,40.67
2019-02-24T12:41:04.914Z,42.03
2019-02-24T12:43:41.670Z,38.63
2019-02-24T12:49:20.315Z,38.37
2019-02-24T12:52:01.985Z,39.30
2019-02-24T12:54:39.051Z,38.10
2019-02-24T12:57:25.156Z,37.17
2019-02-24T13:00:05.362Z,37.43
2019-02-24T13:02:45.960Z,37.77
2019-02-24T13:05:22.637Z,35.73
2019-02-24T13:08:00.061Z,36.53
2019-02-24T13:10:36.437Z,35.63
2019-02-24T13:13:12.640Z,31.37
2019-02-24T13:15:49.672Z,27.93
2019-02-24T13:18:25.197Z,30.60
2019-02-24T13:21:06.885Z,30.48
2019-02-24T13:23:55.128Z,27.00
2019-02-24T13:26:30.754Z,24.77
2019-02-24T13:29:06.118Z,23.80
2019-02-24T13:31:43.486Z,23.92
2019-02-24T13:34:18.688Z,25.83
2019-02-24T13:36:53.876Z,26.17
2019-02-24T13:39:28.804Z,26.40
2019-02-24T13:45:05.875Z,24.77
2019-02-24T13:50:33.304Z,25.17
2019-02-24T13:53:10.713Z,24.40
2019-02-24T13:55:47.128Z,25.03
2019-02-24T13:58:22.273Z,24.90
2019-02-24T14:00:57.943Z,25.32
2019-02-24T14:03:45.772Z,27.10
2019-02-24T14:06:23.156Z,26.63
2019-02-24T14:11:50.040Z,27.37
2019-02-24T14:14:36.949Z,25.60
2019-02-24T14:17:13.909Z,26.40
2019-02-24T14:19:50.375Z,25.83
2019-02-24T14:22:27.577Z,26.47
2019-02-24T14:25:03.102Z,26.17
2019-02-24T14:27:39.794Z,25.93
2019-02-24T14:30:20.436Z,24.67
2019-02-24T14:32:55.689Z,24.97
2019-02-24T14:35:34.009Z,24.43
2019-02-24T14:38:13.696Z,24.63
2019-02-24T14:40:48.941Z,21.20
2019-02-24T14:43:36.520Z,21.17
2019-02-24T14:46:15.190Z,21.27
2019-02-24T14:48:55.627Z,20.30
2019-02-24T14:51:34.020Z,20.67
2019-02-24T14:54:08.931Z,20.33
2019-02-24T14:56:44.476Z,19.67
2019-02-24T14:59:19.054Z,19.17
2019-02-24T15:01:54.083Z,19.03
2019-02-24T15:04:29.497Z,18.20
2019-02-24T15:07:08.271Z,17.60
2019-02-24T15:09:43.528Z,18.25
2019-02-24T15:12:19.227Z,19.37
2019-02-24T15:14:59.386Z,18.93
2019-02-24T15:17:36.079Z,18.50
2019-02-24T15:20:14.655Z,18.90
2019-02-24T15:22:50.978Z,18.37
2019-02-24T15:25:28.599Z,18.37
2019-02-24T15:28:05.116Z,17.28
2019-02-24T15:30:42.005Z,18.27
2019-02-24T15:33:16.498Z,18.33
2019-02-24T15:35:55.205Z,17.90
2019-02-24T15:38:38.222Z,17.20
2019-02-24T15:41:13.466Z,17.50
2019-02-24T15:43:51.872Z,16.30
2019-02-24T15:46:27.515Z,16.43
2019-02-24T15:49:03.597Z,16.03
2019-02-24T15:51:44.367Z,15.87
2019-02-24T15:54:19.047Z,15.37
2019-02-24T15:56:57.811Z,15.73
2019-02-24T15:59:35.017Z,16.12
2019-02-24T16:02:11.629Z,15.15
2019-02-24T16:04:49.564Z,15.20
2019-02-24T16:07:24.040Z,14.83
2019-02-24T16:10:00.902Z,14.83
2019-02-24T16:12:38.657Z,15.55
2019-02-24T16:15:17.676Z,15.23
2019-02-24T16:17:52.235Z,16.10
2019-02-24T16:20:37.429Z,14.10
2019-02-24T16:23:13.869Z,14.20
2019-02-24T16:25:48.172Z,14.68
2019-02-24T16:28:25.025Z,15.53
2019-02-24T16:31:02.776Z,14.50
2019-02-24T16:33:37.947Z,14.00
2019-02-24T16:36:11.496Z,15.07
2019-02-24T16:38:47.279Z,14.97
2019-02-24T16:41:22.118Z,14.43
2019-02-24T16:43:57.055Z,14.73
2019-02-24T16:46:33.690Z,15.03
2019-02-24T16:49:09.343Z,14.43
2019-02-24T16:51:47.974Z,15.43
2019-02-24T16:54:23.164Z,14.53
2019-02-24T16:57:04.792Z,14.43
2019-02-24T16:59:35.804Z,14.37
2019-02-24T17:02:22.598Z,14.60
2019-02-24T17:04:54.242Z,15.10
2019-02-24T17:07:29.132Z,15.00
2019-02-24T17:10:03.136Z,14.03
2019-02-24T17:12:39.663Z,15.20
2019-02-24T17:15:15.284Z,14.23
2019-02-24T17:17:49.550Z,13.98
2019-02-24T17:20:25.317Z,16.10
2019-02-24T17:23:00.049Z,15.30
2019-02-24T17:25:35.188Z,15.97
2019-02-24T17:28:11.566Z,16.17
2019-02-24T17:30:47.782Z,15.93
2019-02-24T17:33:29.684Z,15.97
2019-02-24T17:36:00.154Z,16.53
2019-02-24T17:38:35.165Z,16.40
2019-02-24T17:41:12.407Z,16.77
2019-02-24T17:43:50.553Z,17.17
2019-02-24T17:46:24.700Z,17.83
2019-02-24T17:48:59.309Z,17.37
2019-02-24T17:51:34.451Z,17.27
2019-02-24T17:54:10.514Z,17.92
2019-02-24T17:56:48.063Z,18.40
2019-02-24T17:59:23.006Z,21.27
2019-02-24T18:01:58.476Z,18.77
2019-02-24T18:04:33.505Z,20.55
2019-02-24T18:07:11.886Z,21.43
2019-02-24T18:09:49.029Z,21.67
2019-02-24T18:12:39.774Z,21.50
2019-02-24T18:15:16.875Z,21.68
2019-02-24T18:17:51.459Z,21.10
2019-02-24T18:20:26.846Z,21.83
2019-02-24T18:23:02.038Z,21.20
2019-02-24T18:25:36.669Z,19.85
2019-02-24T18:28:13.476Z,20.80
2019-02-24T18:30:50.007Z,20.73
2019-02-24T18:33:27.289Z,20.50
2019-02-24T18:36:02.282Z,20.53
2019-02-24T18:38:38.504Z,21.00
2019-02-24T18:41:13.374Z,20.60
2019-02-24T18:43:48.030Z,21.00
2019-02-24T18:46:22.891Z,19.80
2019-02-24T18:48:57.393Z,21.60
2019-02-24T18:51:33.379Z,22.03
2019-02-24T18:54:08.096Z,22.83
2019-02-24T18:56:42.722Z,20.80
2019-02-24T18:59:17.658Z,21.70
2019-02-24T19:01:52.207Z,22.63
2019-02-24T19:04:28.426Z,22.27
2019-02-24T19:07:05.427Z,21.80
2019-02-24T19:09:40.161Z,22.30
2019-02-24T19:12:14.788Z,22.47
2019-02-24T19:14:50.693Z,22.13
2019-02-24T19:17:24.004Z,21.93
2019-02-24T19:19:58.439Z,24.67
2019-02-24T19:22:32.815Z,21.77
2019-02-24T19:25:08.002Z,22.20
2019-02-24T19:27:41.919Z,23.38
2019-02-24T19:30:23.980Z,23.07
2019-02-24T19:33:00.312Z,23.53
2019-02-24T19:35:34.635Z,23.80
2019-02-24T19:38:12.195Z,24.05
2019-02-24T19:40:48.318Z,24.20
2019-02-24T19:43:21.920Z,24.45
2019-02-24T19:45:55.670Z,24.67
2019-02-24T19:48:30.058Z,24.30
2019-02-24T19:51:04.061Z,23.63
2019-02-24T19:53:42.775Z,24.53
2019-02-24T19:56:16.070Z,24.47
2019-02-24T19:58:50.371Z,26.03
2019-02-24T20:01:24.332Z,25.10
2019-02-24T20:03:58.798Z,25.88
2019-02-24T20:06:32.799Z,25.43
2019-02-24T20:09:07.938Z,25.20
2019-02-24T20:11:41.858Z,25.73
2019-02-24T20:14:16.428Z,26.03
2019-02-24T20:16:51.016Z,26.93
2019-02-24T20:19:25.374Z,26.73
2019-02-24T20:21:59.358Z,27.07
2019-02-24T20:24:33.309Z,27.87
2019-02-24T20:27:07.430Z,26.75
2019-02-24T20:29:41.347Z,28.17
2019-02-24T20:32:15.533Z,27.07
2019-02-24T20:34:49.351Z,27.20
2019-02-24T20:37:23.307Z,26.27
2019-02-24T20:39:58.088Z,27.93
2019-02-24T20:42:33.354Z,28.83
2019-02-24T20:45:08.500Z,30.10
2019-02-24T20:47:42.453Z,30.60
2019-02-24T20:50:18.487Z,30.12
2019-02-24T20:52:52.388Z,30.53
2019-02-24T20:55:26.791Z,30.07
2019-02-24T20:58:02.812Z,29.53
2019-02-24T21:00:44.756Z,30.93
2019-02-24T21:03:18.655Z,31.80
2019-02-24T21:08:35.458Z,29.77
2019-02-24T21:11:10.951Z,29.13
2019-02-24T21:13:44.822Z,28.63
2019-02-24T21:16:18.675Z,27.00
2019-02-24T21:18:52.287Z,26.73
2019-02-24T21:21:25.743Z,26.48
2019-02-24T21:24:00.014Z,26.87
2019-02-24T21:26:33.762Z,25.93
2019-02-24T21:29:10.994Z,26.25
2019-02-24T21:31:44.786Z,25.73
2019-02-24T21:34:18.884Z,24.60
2019-02-24T21:36:52.596Z,25.03
2019-02-24T21:39:26.851Z,21.80
2019-02-24T21:42:00.388Z,21.80
2019-02-24T21:44:33.979Z,22.23
2019-02-24T21:47:07.687Z,22.27
2019-02-24T21:49:42.641Z,21.00
2019-02-24T21:52:16.406Z,21.40
2019-02-24T21:54:50.470Z,20.67
2019-02-24T21:57:24.129Z,19.57
2019-02-24T21:59:57.840Z,21.10
2019-02-24T22:02:31.890Z,20.27
2019-02-24T22:05:06.714Z,20.80
2019-02-24T22:07:41.310Z,19.43
2019-02-24T22:10:16.797Z,19.83
2019-02-24T22:12:52.426Z,19.43
2019-02-24T22:15:27.259Z,19.23
2019-02-24T22:18:01.101Z,17.70
2019-02-24T22:20:35.892Z,19.82
2019-02-24T22:23:09.727Z,19.77
2019-02-24T22:25:43.120Z,19.40
2019-02-24T22:28:19.684Z,18.93
2019-02-24T22:30:55.943Z,17.80
2019-02-24T22:33:31.958Z,18.17
2019-02-24T22:36:07.713Z,17.92
2019-02-24T22:38:43.213Z,19.03
2019-02-24T22:41:16.838Z,18.52
2019-02-24T22:43:50.795Z,19.43
2019-02-24T22:46:24.730Z,17.87
2019-02-24T22:48:58.399Z,17.20
2019-02-24T22:51:32.547Z,17.90
2019-02-24T22:54:06.384Z,18.15
2019-02-24T22:56:40.112Z,17.90
2019-02-24T22:59:13.975Z,18.27
2019-02-24T23:01:49.519Z,19.47
2019-02-24T23:04:23.632Z,18.50
2019-02-24T23:06:57.480Z,18.93
2019-02-24T23:09:31.785Z,19.37
2019-02-24T23:12:06.814Z,19.10
2019-02-24T23:14:40.751Z,19.50
2019-02-24T23:17:14.779Z,19.53
2019-02-24T23:19:49.240Z,19.52
2019-02-24T23:22:23.241Z,20.10
2019-02-24T23:25:00.543Z,20.10
2019-02-24T23:30:17.844Z,19.60
2019-02-24T23:32:52.165Z,21.43
2019-02-24T23:35:25.598Z,21.03
2019-02-24T23:38:00.322Z,20.47
2019-02-24T23:40:33.571Z,21.20
2019-02-24T23:45:47.314Z,21.57
2019-02-24T23:48:23.212Z,20.60
2019-02-24T23:51:00.811Z,20.40
2019-02-24T23:53:32.795Z,19.73
2019-02-24T23:56:06.886Z,19.35
2019-02-24T23:58:40.767Z,20.20
